Time;durP1;ratioP1;P1;durP2;ratioP2;P2;SDS_P1;SDS_P2;PMS_P1;PMS_P2;Temp;Humidity;BMP_temperature;BMP_pressure;BME280_temperature;BME280_humidity;BME280_pressure;Samples;Min_cycle;Max_cycle;Signal;HPM_P1;HPM_P2
2022/12/03 00:02:01;;;;;;;5.32;1.80;;;;;;;9.08;100.00;102678.41;5006454;28;20093;-82
2022/12/03 00:04:28;;;;;;;4.47;1.40;;;;;;;9.12;100.00;102690.63;5003326;28;20054;-82
2022/12/03 00:06:55;;;;;;;5.00;1.70;;;;;;;9.20;100.00;102694.09;5010351;28;21459;-82
2022/12/03 00:09:21;;;;;;;5.47;1.67;;;;;;;9.02;100.00;102689.75;5008855;28;20058;-82
2022/12/03 00:11:48;;;;;;;4.50;1.50;;;;;;;8.96;100.00;102696.69;5011758;28;20399;-82
2022/12/03 00:14:15;;;;;;;5.55;1.75;;;;;;;9.01;100.00;102690.63;5045410;28;20558;-82
2022/12/03 00:16:42;;;;;;;6.35;1.83;;;;;;;8.89;100.00;102669.72;5015195;28;20121;-82
2022/12/03 00:19:08;;;;;;;5.20;1.60;;;;;;;8.98;100.00;102687.13;5009280;28;20192;-82
2022/12/03 00:21:35;;;;;;;7.13;1.83;;;;;;;8.95;100.00;102684.53;5007993;28;20050;-82
2022/12/03 00:24:02;;;;;;;5.78;1.90;;;;;;;8.79;100.00;102692.34;5003190;28;20061;-82
2022/12/03 00:26:28;;;;;;;5.53;1.60;;;;;;;8.87;100.00;102685.41;5010382;28;20062;-82
2022/12/03 00:28:56;;;;;;;4.07;1.40;;;;;;;8.84;100.00;102674.09;5012306;28;20054;-82
2022/12/03 00:31:23;;;;;;;6.80;1.80;;;;;;;8.89;100.00;102683.66;5011972;28;20108;-82
2022/12/03 00:33:51;;;;;;;5.68;2.13;;;;;;;8.85;100.00;102684.53;5009631;28;20088;-82
2022/12/03 00:36:18;;;;;;;4.97;1.83;;;;;;;8.72;100.00;102648.81;5011188;28;20116;-81
2022/12/03 00:38:44;;;;;;;9.27;2.20;;;;;;;8.86;100.00;102660.13;5000245;28;20591;-82
2022/12/03 00:41:11;;;;;;;5.43;1.92;;;;;;;8.93;100.00;102685.38;5011600;28;20394;-82
2022/12/03 00:43:38;;;;;;;4.65;1.70;;;;;;;8.96;100.00;102678.41;5011986;28;20053;-82
2022/12/03 00:46:05;;;;;;;5.10;1.75;;;;;;;8.85;100.00;102670.56;5004299;28;20438;-82
2022/12/03 00:48:32;;;;;;;7.93;2.05;;;;;;;8.75;100.00;102667.09;5012169;28;20046;-82
2022/12/03 00:50:59;;;;;;;5.18;1.50;;;;;;;8.78;100.00;102661.84;5007788;28;20054;-82
2022/12/03 00:53:25;;;;;;;5.13;1.60;;;;;;;8.89;100.00;102678.44;5001644;28;20377;-82
2022/12/03 00:55:52;;;;;;;6.60;1.70;;;;;;;8.92;100.00;102662.75;5010466;28;20049;-82
2022/12/03 00:58:18;;;;;;;5.32;1.58;;;;;;;8.92;100.00;102675.81;5003140;28;20050;-82
2022/12/03 01:00:45;;;;;;;4.30;1.40;;;;;;;8.83;100.00;102681.03;4994055;28;20839;-82
2022/12/03 01:03:12;;;;;;;5.85;1.55;;;;;;;8.74;100.00;102684.50;5010720;28;20045;-82
2022/12/03 01:05:39;;;;;;;7.25;1.67;;;;;;;8.84;100.00;102677.56;5012751;28;20050;-82
2022/12/03 01:08:05;;;;;;;4.30;1.55;;;;;;;8.98;100.00;102674.94;5004884;28;20061;-82
2022/12/03 01:10:32;;;;;;;8.60;1.98;;;;;;;8.89;100.00;102667.97;5011377;28;20050;-82
2022/12/03 01:12:59;;;;;;;6.30;2.25;;;;;;;8.66;100.00;102646.22;5009270;28;20471;-83
2022/12/03 01:15:25;;;;;;;4.68;2.00;;;;;;;8.90;100.00;102664.47;5001659;28;20090;-82
2022/12/03 01:17:53;;;;;;;5.85;1.70;;;;;;;8.82;100.00;102653.19;5009773;28;20076;-82
2022/12/03 01:20:20;;;;;;;6.75;1.98;;;;;;;8.81;100.00;102669.72;4996135;28;20052;-82
2022/12/03 01:22:46;;;;;;;7.20;1.92;;;;;;;8.88;100.00;102665.38;4996981;28;20050;-82
2022/12/03 01:25:13;;;;;;;4.60;1.60;;;;;;;9.03;100.00;102665.38;5009904;28;20385;-82
2022/12/03 01:27:40;;;;;;;10.20;2.40;;;;;;;8.67;100.00;102671.44;5009737;28;20049;-82
2022/12/03 01:30:08;;;;;;;9.13;2.10;;;;;;;8.91;100.00;102650.56;5010556;28;20046;-82
2022/12/03 01:32:34;;;;;;;8.85;1.77;;;;;;;9.07;100.00;102669.72;5010355;28;20042;-82
2022/12/03 01:35:01;;;;;;;9.07;2.30;;;;;;;8.86;100.00;102661.88;5010984;28;20443;-82
2022/12/03 01:37:28;;;;;;;5.82;1.80;;;;;;;9.07;100.00;102666.25;5012312;28;20057;-82
2022/12/03 01:39:55;;;;;;;7.93;2.17;;;;;;;9.03;100.00;102661.88;5006004;28;20176;-82
2022/12/03 01:42:29;;;;;;;5.10;1.70;;;;;;;9.06;100.00;102661.88;5011645;28;20050;-82
2022/12/03 01:44:57;;;;;;;7.30;1.80;;;;;;;8.88;100.00;102652.31;5010044;28;20050;-82
2022/12/03 01:47:32;;;;;;;6.32;1.98;;;;;;;8.99;100.00;102650.53;5008164;28;20046;-82
2022/12/03 01:50:07;;;;;;;9.32;2.50;;;;;;;9.03;100.00;102667.09;5008107;28;20054;-82
2022/12/03 01:52:37;;;;;;;8.52;2.60;;;;;;;9.12;100.00;102660.13;5007675;28;20544;-82
2022/12/03 01:55:11;;;;;;;4.35;1.48;;;;;;;9.12;100.00;102667.13;5010687;28;20046;-82
2022/12/03 01:57:54;;;;;;;6.85;1.98;;;;;;;9.10;100.00;102664.50;5011424;28;20112;-82
2022/12/03 02:00:23;;;;;;;6.25;2.13;;;;;;;9.13;100.00;102655.78;5005410;28;20108;-82
2022/12/03 02:03:02;;;;;;;6.53;2.10;;;;;;;9.20;100.00;102670.56;5005946;28;20042;-82
2022/12/03 02:05:31;;;;;;;6.03;1.92;;;;;;;9.20;100.00;102657.50;5014586;28;20050;-82
2022/12/03 02:08:01;;;;;;;6.22;2.10;;;;;;;9.08;100.00;102655.78;5008099;28;20105;-83
2022/12/03 02:10:34;;;;;;;8.60;3.33;;;;;;;9.12;100.00;102657.53;5006067;28;20587;-82
2022/12/03 02:13:05;;;;;;;7.28;2.22;;;;;;;9.09;100.00;102654.91;5015646;28;20104;-82
2022/12/03 02:15:32;;;;;;;8.27;2.83;;;;;;;9.04;100.00;102674.06;5015777;28;20123;-82
2022/12/03 02:17:59;;;;;;;10.80;3.58;;;;;;;8.88;100.00;102662.75;5013588;28;20427;-82
2022/12/03 02:20:26;;;;;;;8.18;2.45;;;;;;;9.06;100.00;102670.56;5016226;28;20480;-82
2022/12/03 02:23:12;;;;;;;11.60;3.33;;;;;;;8.88;100.00;102673.19;5013571;28;20045;-82
2022/12/03 02:25:39;;;;;;;14.98;3.13;;;;;;;8.63;100.00;102657.50;5014075;28;20092;-82
2022/12/03 02:28:08;;;;;;;9.25;2.80;;;;;;;8.82;100.00;102658.41;5012852;28;20057;-82
2022/12/03 02:30:35;;;;;;;11.18;2.85;;;;;;;8.93;100.00;102663.63;5014503;28;20116;-82
2022/12/03 02:33:03;;;;;;;10.63;2.88;;;;;;;8.74;100.00;102658.38;5012613;28;20053;-82
2022/12/03 02:35:33;;;;;;;12.75;3.20;;;;;;;8.84;100.00;102655.78;5007216;28;20495;-82
2022/12/03 02:38:25;;;;;;;7.35;2.20;;;;;;;9.00;100.00;102659.28;5013573;28;20463;-82
2022/12/03 02:40:55;;;;;;;9.73;2.15;;;;;;;8.90;100.00;102656.63;5014306;28;20131;-82
2022/12/03 02:43:23;;;;;;;8.18;2.38;;;;;;;8.94;100.00;102647.06;5013875;28;20116;-82
2022/12/03 02:45:53;;;;;;;10.73;2.60;;;;;;;8.83;100.00;102651.44;5014709;28;20041;-82
2022/12/03 02:48:25;;;;;;;12.25;2.60;;;;;;;8.84;100.00;102654.03;5013579;28;20054;-82
2022/12/03 02:50:56;;;;;;;7.22;2.28;;;;;;;8.97;100.00;102647.06;5013328;28;20092;-82
2022/12/03 02:53:29;;;;;;;9.63;2.70;;;;;;;8.83;100.00;102649.69;5008961;28;20096;-82
2022/12/03 02:55:59;;;;;;;8.60;2.53;;;;;;;8.87;100.00;102664.50;5014182;28;20050;-82
2022/12/03 02:58:30;;;;;;;8.40;2.72;;;;;;;8.87;100.00;102661.88;5012356;28;20124;-82
2022/12/03 03:00:57;;;;;;;9.57;2.85;;;;;;;8.77;100.00;102649.69;5010104;28;20454;-82
2022/12/03 03:03:27;;;;;;;8.02;2.42;;;;;;;8.76;100.00;102649.69;5013042;28;20045;-82
2022/12/03 03:05:57;;;;;;;7.18;2.35;;;;;;;9.09;100.00;102648.81;5012165;28;20046;-82
2022/12/03 03:08:26;;;;;;;8.73;2.40;;;;;;;8.89;100.00;102600.06;5014136;28;20101;-82
2022/12/03 03:10:54;;;;;;;7.28;1.85;;;;;;;8.87;100.00;102638.38;5014350;28;20053;-82
2022/12/03 03:13:21;;;;;;;7.85;2.88;;;;;;;9.09;100.00;102641.84;5010793;28;20050;-82
2022/12/03 03:15:48;;;;;;;7.70;2.20;;;;;;;8.97;100.00;102634.00;4994854;28;20073;-82
2022/12/03 03:18:15;;;;;;;7.40;2.05;;;;;;;9.12;100.00;102627.91;5009034;28;20088;-82
2022/12/03 03:20:43;;;;;;;6.72;2.00;;;;;;;9.03;100.00;102625.28;5013141;28;20100;-82
2022/12/03 03:23:09;;;;;;;18.15;2.80;;;;;;;8.95;100.00;102629.66;5012723;28;20133;-82
2022/12/03 03:25:42;;;;;;;7.55;2.22;;;;;;;8.98;100.00;102622.69;5013093;28;20734;-81
2022/12/03 03:28:10;;;;;;;13.38;3.80;;;;;;;8.99;100.00;102616.56;5001681;28;20050;-82
2022/12/03 03:30:38;;;;;;;5.43;1.75;;;;;;;9.12;100.00;102615.72;5013146;28;20173;-82
2022/12/03 03:33:06;;;;;;;6.63;1.98;;;;;;;9.12;100.00;102612.22;5013373;28;20381;-83
2022/12/03 03:35:33;;;;;;;7.15;2.22;;;;;;;9.16;100.00;102626.16;5012561;28;20090;-82
2022/12/03 03:37:59;;;;;;;10.25;2.22;;;;;;;9.10;100.00;102604.38;5011137;28;20057;-82
2022/12/03 03:40:27;;;;;;;7.20;1.95;;;;;;;9.01;100.00;102603.50;5013654;28;20097;-82
2022/12/03 03:42:55;;;;;;;7.13;2.00;;;;;;;8.76;100.00;102576.56;5013889;28;20058;-82
2022/12/03 03:45:22;;;;;;;12.82;2.70;;;;;;;8.82;100.00;102579.16;5014095;28;20042;-82
2022/12/03 03:47:57;;;;;;;9.68;2.22;;;;;;;9.03;100.00;102604.38;5010604;28;20586;-82
2022/12/03 03:50:27;;;;;;;5.90;2.00;;;;;;;9.18;100.00;102606.97;5013948;28;20112;-82
2022/12/03 03:52:55;;;;;;;8.05;2.00;;;;;;;9.07;100.00;102599.16;5013758;28;20054;-82
2022/12/03 03:55:22;;;;;;;4.70;1.50;;;;;;;9.04;100.00;102604.38;5013463;28;20408;-82
2022/12/03 03:57:49;;;;;;;8.68;1.95;;;;;;;8.99;100.00;102606.13;5011483;28;20107;-82
2022/12/03 04:00:16;;;;;;;7.38;1.90;;;;;;;9.14;100.00;102613.09;5012756;28;20108;-82
2022/12/03 04:02:43;;;;;;;9.20;2.17;;;;;;;9.07;100.00;102601.78;5013054;28;20069;-82
2022/12/03 04:05:20;;;;;;;6.35;1.88;;;;;;;9.03;100.00;102593.94;5012236;28;20049;-83
2022/12/03 04:07:47;;;;;;;4.65;1.70;;;;;;;8.93;100.00;102577.41;5013005;28;20096;-83
2022/12/03 04:13:00;;;;;;;7.20;1.98;;;;;;;8.99;100.00;102579.13;5008883;28;20050;-82
2022/12/03 04:15:27;;;;;;;4.88;1.70;;;;;;;8.90;100.00;102587.84;5009640;28;20096;-82
2022/12/03 04:20:40;;;;;;;4.28;1.65;;;;;;;8.94;100.00;102573.91;5005018;28;20057;-82
2022/12/03 04:23:07;;;;;;;5.68;1.80;;;;;;;8.97;100.00;102588.72;4998649;28;20058;-82
2022/12/03 04:35:41;;;;;;;5.45;2.00;;;;;;;9.00;100.00;102570.44;5012461;28;20642;-83
2022/12/03 04:36:37;;;;;;;8.23;1.95;;;;;;;8.97;100.00;102567.81;5002240;28;20053;-83
2022/12/03 04:39:04;;;;;;;5.30;1.75;;;;;;;8.80;100.00;102540.00;5010982;28;20053;-83
2022/12/03 04:41:31;;;;;;;8.00;1.92;;;;;;;8.92;100.00;102555.66;5011859;28;20417;-82
2022/12/03 04:46:43;;;;;;;5.75;1.70;;;;;;;9.00;100.00;102560.84;5000705;28;20053;-83
2022/12/03 04:49:10;;;;;;;6.63;2.17;;;;;;;8.85;100.00;102569.59;5012411;28;20057;-82
2022/12/03 04:51:36;;;;;;;8.77;2.40;;;;;;;8.92;100.00;102554.75;5012527;28;20187;-82
2022/12/03 04:54:03;;;;;;;4.70;1.63;;;;;;;9.00;100.00;102544.31;5012323;28;20057;-82
2022/12/03 04:56:30;;;;;;;7.18;2.17;;;;;;;8.97;100.00;102544.31;5012278;28;20038;-82
2022/12/03 04:58:56;;;;;;;11.10;2.25;;;;;;;8.90;100.00;102552.16;5011315;28;20444;-82
2022/12/03 05:01:23;;;;;;;8.65;2.22;;;;;;;8.86;100.00;102544.34;5011968;28;20057;-82
2022/12/03 05:03:50;;;;;;;6.22;2.08;;;;;;;9.03;100.00;102560.84;5011792;28;20479;-82
2022/12/03 05:06:17;;;;;;;8.48;2.10;;;;;;;8.84;100.00;102538.25;5012318;28;20096;-82
2022/12/03 05:08:43;;;;;;;9.95;2.22;;;;;;;8.90;100.00;102552.16;5012031;28;20463;-82
2022/12/03 05:11:10;;;;;;;8.10;1.90;;;;;;;8.92;100.00;102549.53;5011436;28;20053;-82
2022/12/03 05:13:37;;;;;;;7.00;1.83;;;;;;;9.01;100.00;102557.38;5011128;28;20476;-82
2022/12/03 05:16:04;;;;;;;8.80;2.38;;;;;;;8.96;100.00;102558.22;5010623;28;20141;-82
2022/12/03 05:18:30;;;;;;;4.95;1.67;;;;;;;8.85;100.00;102537.34;5009914;28;20077;-82
2022/12/03 05:20:57;;;;;;;5.63;1.90;;;;;;;8.90;100.00;102539.09;5012111;28;20566;-82
2022/12/03 05:23:24;;;;;;;3.92;1.38;;;;;;;8.98;100.00;102527.75;5011545;28;20120;-82
2022/12/03 05:25:51;;;;;;;8.77;2.25;;;;;;;9.02;100.00;102545.19;5011299;28;20050;-82
2022/12/03 05:28:20;;;;;;;5.72;1.83;;;;;;;9.05;100.00;102542.56;4995869;28;20065;-83
2022/12/03 05:30:47;;;;;;;5.32;1.70;;;;;;;8.85;100.00;102524.28;5007639;28;20388;-82
2022/12/03 05:33:14;;;;;;;5.70;1.85;;;;;;;8.97;100.00;102539.94;5011885;28;20409;-82
2022/12/03 05:35:41;;;;;;;8.18;2.03;;;;;;;8.96;100.00;102543.44;5003463;28;20453;-83
2022/12/03 05:38:08;;;;;;;5.63;1.98;;;;;;;8.87;100.00;102514.72;5011567;28;20446;-82
2022/12/03 05:40:34;;;;;;;6.95;1.65;;;;;;;8.97;100.00;102542.56;5010673;28;20054;-82
2022/12/03 05:43:01;;;;;;;7.10;1.67;;;;;;;8.70;100.00;102506.91;5008188;28;20423;-82
2022/12/03 05:45:37;;;;;;;11.90;2.40;;;;;;;8.94;100.00;102537.34;5009965;28;20104;-82
2022/12/03 05:48:07;;;;;;;4.85;1.70;;;;;;;8.91;100.00;102521.69;5010926;28;20046;-82
2022/12/03 05:50:36;;;;;;;5.05;1.80;;;;;;;8.97;100.00;102524.28;5011830;28;20054;-82
2022/12/03 05:53:03;;;;;;;6.40;2.10;;;;;;;8.84;100.00;102527.81;4998995;28;20045;-83
2022/12/03 05:55:31;;;;;;;8.38;1.70;;;;;;;8.82;100.00;102513.84;5000782;28;20160;-83
2022/12/03 05:57:57;;;;;;;9.48;2.75;;;;;;;8.82;100.00;102508.63;5010346;28;20050;-82
2022/12/03 06:00:27;;;;;;;9.38;2.35;;;;;;;8.82;100.00;102511.22;5011598;28;20083;-82
2022/12/03 06:02:55;;;;;;;10.30;2.65;;;;;;;8.76;100.00;102499.06;5010693;28;20046;-83
2022/12/03 06:05:22;;;;;;;5.10;1.67;;;;;;;8.86;100.00;102502.53;5011936;28;20057;-82
2022/12/03 06:07:50;;;;;;;7.30;2.35;;;;;;;8.96;100.00;102521.66;5009857;28;20057;-82
2022/12/03 06:10:21;;;;;;;6.03;2.10;;;;;;;8.87;100.00;102510.38;5006231;28;20050;-83
2022/12/03 06:12:48;;;;;;;6.30;2.10;;;;;;;8.95;100.00;102505.13;5006201;28;20100;-83
2022/12/03 06:15:16;;;;;;;10.48;2.70;;;;;;;8.86;100.00;102508.63;4999272;28;20058;-82
2022/12/03 06:17:43;;;;;;;6.47;1.70;;;;;;;8.83;100.00;102513.84;4999832;28;20100;-82
2022/12/03 06:20:12;;;;;;;7.07;1.70;;;;;;;9.05;100.00;102508.59;5004039;28;20084;-82
2022/12/03 06:22:39;;;;;;;6.13;1.80;;;;;;;8.87;100.00;102499.94;4999373;28;20124;-82
2022/12/03 06:25:06;;;;;;;5.43;1.75;;;;;;;8.87;100.00;102497.31;4999569;28;20043;-82
2022/12/03 06:27:33;;;;;;;4.85;1.60;;;;;;;8.93;100.00;102497.28;5004591;28;20053;-82
2022/12/03 06:30:00;;;;;;;5.68;1.50;;;;;;;8.91;100.00;102508.63;5000396;28;20057;-82
2022/12/03 06:32:27;;;;;;;6.28;1.65;;;;;;;8.74;100.00;102478.16;5004110;28;20517;-82
2022/12/03 06:35:09;;;;;;;5.25;1.70;;;;;;;8.71;100.00;102499.09;4991166;28;20053;-82
2022/12/03 06:37:35;;;;;;;7.25;1.80;;;;;;;8.63;100.00;102474.72;5000806;28;20488;-83
2022/12/03 06:40:03;;;;;;;5.90;1.98;;;;;;;8.70;100.00;102499.09;5003021;28;20472;-84
2022/12/03 06:42:30;;;;;;;7.47;1.85;;;;;;;8.77;100.00;102495.59;5009145;28;20128;-84
2022/12/03 06:44:56;;;;;;;5.57;1.70;;;;;;;8.63;100.00;102472.09;5007040;28;20694;-82
2022/12/03 06:47:23;;;;;;;8.38;2.03;;;;;;;8.59;100.00;102487.78;5001526;28;20107;-82
2022/12/03 06:49:50;;;;;;;6.05;1.92;;;;;;;8.63;100.00;102476.47;5004888;28;20049;-82
2022/12/03 06:52:17;;;;;;;9.60;1.90;;;;;;;8.89;100.00;102511.25;5004193;28;20054;-83
2022/12/03 06:54:43;;;;;;;7.68;1.88;;;;;;;8.68;100.00;102470.38;5003777;28;20496;-83
2022/12/03 06:57:10;;;;;;;6.53;2.05;;;;;;;8.39;100.00;102456.44;5004656;28;20049;-82
2022/12/03 06:59:37;;;;;;;8.30;1.73;;;;;;;8.85;100.00;102498.19;5007103;28;20099;-82
2022/12/03 07:02:03;;;;;;;7.70;1.90;;;;;;;8.64;100.00;102476.47;4999981;28;20844;-83
2022/12/03 07:04:30;;;;;;;8.20;2.10;;;;;;;8.57;100.00;102500.84;5007501;28;20054;-83
2022/12/03 07:06:57;;;;;;;10.98;3.25;;;;;;;8.72;100.00;102506.03;5009288;28;20104;-84
2022/12/03 07:09:24;;;;;;;7.60;2.05;;;;;;;8.63;100.00;102503.44;5004692;28;20475;-82
2022/12/03 07:11:50;;;;;;;4.95;1.83;;;;;;;8.57;100.00;102500.84;5004148;28;20054;-84
2022/12/03 07:14:17;;;;;;;6.40;2.20;;;;;;;8.57;100.00;102507.78;5002140;28;20108;-82
2022/12/03 07:16:44;;;;;;;10.05;2.95;;;;;;;8.55;100.00;102498.25;5002647;28;20042;-82
2022/12/03 07:19:11;;;;;;;7.45;1.92;;;;;;;8.31;100.00;102480.81;5003898;28;20542;-82
2022/12/03 07:21:38;;;;;;;7.85;1.90;;;;;;;8.50;100.00;102505.19;5007901;28;20050;-83
2022/12/03 07:24:05;;;;;;;9.23;2.47;;;;;;;8.58;100.00;102499.09;5013525;28;20058;-82
2022/12/03 07:26:32;;;;;;;8.23;1.90;;;;;;;8.65;100.00;102504.31;5002314;28;20050;-82
2022/12/03 07:28:59;;;;;;;10.93;2.67;;;;;;;8.59;100.00;102504.31;5004190;28;20058;-82
2022/12/03 07:31:25;;;;;;;7.97;2.05;;;;;;;8.68;100.00;102514.75;5004798;28;20934;-82
2022/12/03 07:33:52;;;;;;;8.93;2.65;;;;;;;8.43;100.00;102502.56;5004894;28;20053;-83
2022/12/03 07:36:19;;;;;;;5.85;1.80;;;;;;;8.67;100.00;102517.38;5006833;28;20041;-83
2022/12/03 07:38:46;;;;;;;6.57;1.65;;;;;;;8.64;100.00;102502.59;5005744;28;20061;-82
2022/12/03 07:41:13;;;;;;;10.68;1.80;;;;;;;8.72;100.00;102521.69;5002977;28;20046;-83
2022/12/03 07:43:39;;;;;;;4.75;1.40;;;;;;;8.63;100.00;102511.28;5003004;28;20054;-84
2022/12/03 07:46:07;;;;;;;5.05;1.65;;;;;;;8.55;100.00;102502.56;4998587;28;20072;-83
2022/12/03 07:48:34;;;;;;;6.43;1.85;;;;;;;8.62;100.00;102501.69;5005621;28;20054;-83
2022/12/03 07:51:01;;;;;;;12.10;2.45;;;;;;;8.39;100.00;102506.91;5000724;28;20050;-82
2022/12/03 07:53:27;;;;;;;5.40;1.60;;;;;;;8.27;100.00;102459.91;5004000;28;20050;-82
2022/12/03 07:55:54;;;;;;;6.07;1.60;;;;;;;8.40;100.00;102486.91;5006933;28;20566;-82
2022/12/03 07:58:21;;;;;;;7.43;1.90;;;;;;;8.32;100.00;102479.94;5004959;28;20381;-82
2022/12/03 08:00:48;;;;;;;7.85;2.40;;;;;;;8.53;100.00;102502.59;5004266;28;20451;-82
2022/12/03 08:03:14;;;;;;;5.22;1.70;;;;;;;8.63;100.00;102500.84;5003225;28;20468;-82
2022/12/03 08:05:41;;;;;;;6.43;1.90;;;;;;;8.63;100.00;102489.53;5011582;28;20045;-83
2022/12/03 08:08:08;;;;;;;6.45;2.05;;;;;;;8.63;100.00;102500.84;5005538;28;20042;-83
2022/12/03 08:10:35;;;;;;;4.93;1.67;;;;;;;8.39;100.00;102477.31;5001834;28;20052;-83
2022/12/03 08:13:05;;;;;;;9.63;2.38;;;;;;;8.38;100.00;102486.03;5000208;28;20058;-83
2022/12/03 08:15:32;;;;;;;5.57;1.77;;;;;;;8.40;100.00;102479.94;5001257;28;20393;-83
2022/12/03 08:18:17;;;;;;;5.28;1.80;;;;;;;8.48;100.00;102485.16;5003587;28;20053;-84
2022/12/03 08:20:46;;;;;;;6.70;1.70;;;;;;;8.41;100.00;102489.53;5010769;28;20049;-83
2022/12/03 08:23:22;;;;;;;6.30;1.95;;;;;;;8.49;100.00;102484.31;5007233;28;20049;-84
2022/12/03 08:25:50;;;;;;;6.95;1.77;;;;;;;8.49;100.00;102453.00;5023456;28;20046;-84
2022/12/03 08:28:26;;;;;;;7.22;2.03;;;;;;;8.55;100.00;102469.53;5008799;28;20049;-84
2022/12/03 08:31:01;;;;;;;5.65;1.70;;;;;;;8.62;100.00;102483.41;5023157;28;20451;-83
2022/12/03 08:33:34;;;;;;;6.03;1.90;;;;;;;8.48;100.00;102462.56;5023679;28;20148;-82
2022/12/03 08:36:14;;;;;;;6.00;1.77;;;;;;;8.67;100.00;102480.81;5025140;28;20068;-83
2022/12/03 08:38:46;;;;;;;6.18;2.10;;;;;;;8.45;100.00;102470.41;5025408;28;20049;-82
2022/12/03 08:42:40;;;;;;;7.47;2.13;;;;;;;8.62;100.00;102486.03;5040752;28;20069;-83
2022/12/03 08:44:27;;;;;;;5.30;1.55;;;;;;;8.71;100.00;102486.03;5025413;28;20379;-82
2022/12/03 08:47:16;;;;;;;6.80;1.90;;;;;;;8.76;100.00;102482.53;5022356;28;20049;-83
2022/12/03 08:49:57;;;;;;;3.72;1.60;;;;;;;8.53;100.00;102449.50;5022260;28;20050;-82
2022/12/03 08:52:32;;;;;;;7.43;1.80;;;;;;;8.47;100.00;102434.72;5019501;28;20072;-82
2022/12/03 08:55:01;;;;;;;4.22;1.40;;;;;;;8.89;100.00;102479.03;5017219;28;20053;-83
2022/12/03 08:57:31;;;;;;;6.65;1.63;;;;;;;8.57;100.00;102432.97;5053292;28;20049;-82
2022/12/03 09:00:22;;;;;;;5.80;1.70;;;;;;;8.79;100.00;102462.50;5021220;28;20132;-82
2022/12/03 09:02:58;;;;;;;5.50;1.60;;;;;;;8.95;100.00;102473.78;5013352;28;20062;-83
2022/12/03 09:05:28;;;;;;;6.22;1.90;;;;;;;8.74;100.00;102443.34;5018387;28;20050;-83
2022/12/03 09:07:55;;;;;;;5.85;1.70;;;;;;;8.77;100.00;102445.97;5016971;28;20042;-82
2022/12/03 09:10:25;;;;;;;11.07;2.13;;;;;;;8.70;100.00;102445.09;5020782;28;20049;-83
2022/12/03 09:12:55;;;;;;;7.30;2.22;;;;;;;8.60;100.00;102422.50;5019277;28;20050;-83
2022/12/03 09:15:22;;;;;;;6.75;2.20;;;;;;;8.86;100.00;102468.59;5017899;28;20054;-83
2022/12/03 09:17:49;;;;;;;4.82;2.03;;;;;;;8.77;100.00;102442.50;5024587;28;20463;-83
2022/12/03 09:20:16;;;;;;;6.13;2.00;;;;;;;8.95;100.00;102449.41;5024031;28;20063;-82
2022/12/03 09:22:42;;;;;;;8.07;2.00;;;;;;;8.79;100.00;102433.78;5023848;28;20042;-83
2022/12/03 09:25:09;;;;;;;6.25;2.30;;;;;;;8.84;100.00;102452.91;5022863;28;20054;-82
2022/12/03 09:27:37;;;;;;;7.63;2.30;;;;;;;8.71;100.00;102420.75;5020060;28;20053;-82
2022/12/03 09:30:05;;;;;;;15.57;2.92;;;;;;;8.62;100.00;102438.16;5027360;28;20125;-83
2022/12/03 09:32:32;;;;;;;9.00;2.38;;;;;;;8.31;100.00;102394.69;5021677;28;20057;-81
2022/12/03 09:34:59;;;;;;;11.95;3.70;;;;;;;8.41;100.00;102399.88;5024495;28;20050;-82
2022/12/03 09:37:26;;;;;;;10.57;3.33;;;;;;;8.62;100.00;102418.13;5018165;28;20042;-82
2022/12/03 09:39:55;;;;;;;10.27;2.53;;;;;;;8.63;100.00;102426.84;5018618;28;20052;-82
2022/12/03 09:42:23;;;;;;;11.32;2.85;;;;;;;8.72;100.00;102432.91;5014013;28;20053;-81
2022/12/03 09:44:52;;;;;;;8.73;2.30;;;;;;;8.87;100.00;102463.34;5012124;28;20050;-81
2022/12/03 09:47:24;;;;;;;7.65;2.63;;;;;;;8.60;100.00;102424.25;5016961;28;20468;-83
2022/12/03 09:49:51;;;;;;;9.43;2.60;;;;;;;8.71;100.00;102436.41;5005758;28;20065;-82
2022/12/03 09:52:27;;;;;;;9.07;2.60;;;;;;;8.96;100.00;102458.97;5010468;28;20050;-83
2022/12/03 09:54:54;;;;;;;7.70;2.07;;;;;;;8.94;100.00;102451.13;5019324;28;20423;-82
2022/12/03 09:57:21;;;;;;;12.00;2.72;;;;;;;8.52;100.00;102440.81;5010039;28;20792;-82
2022/12/03 09:59:48;;;;;;;12.02;2.42;;;;;;;8.62;100.00;102444.25;5017020;28;20045;-82
2022/12/03 10:02:28;;;;;;;8.35;2.65;;;;;;;8.43;100.00;102442.53;5020576;28;20534;-81
2022/12/03 10:04:56;;;;;;;5.95;1.85;;;;;;;8.51;100.00;102451.25;5018847;28;20081;-81
2022/12/03 10:07:25;;;;;;;9.82;2.75;;;;;;;8.22;100.00;102430.38;5025853;28;20077;-82
2022/12/03 10:09:52;;;;;;;5.88;2.30;;;;;;;8.52;100.00;102460.81;5005188;28;20047;-82
2022/12/03 10:12:23;;;;;;;8.18;2.90;;;;;;;8.91;100.00;102466.84;5023033;28;20611;-83
2022/12/03 10:14:50;;;;;;;7.90;2.50;;;;;;;8.65;100.00;102431.19;5019746;28;20049;-82
2022/12/03 10:17:18;;;;;;;7.10;2.47;;;;;;;8.72;100.00;102435.53;5021694;28;20472;-82
2022/12/03 10:19:45;;;;;;;6.63;2.10;;;;;;;8.73;100.00;102436.41;5020149;28;20081;-81
2022/12/03 10:22:12;;;;;;;6.90;2.08;;;;;;;8.71;100.00;102439.03;5021678;28;20046;-81
2022/12/03 10:24:39;;;;;;;7.03;1.80;;;;;;;9.01;100.00;102462.44;5021491;28;20049;-82
2022/12/03 10:27:21;;;;;;;11.07;2.00;;;;;;;8.99;100.00;102446.75;5021722;28;20133;-84
2022/12/03 10:29:59;;;;;;;8.23;2.03;;;;;;;8.84;100.00;102429.41;5022578;28;20065;-83
2022/12/03 10:32:39;;;;;;;6.72;2.13;;;;;;;8.57;100.00;102413.81;5017087;28;20060;-83
2022/12/03 10:35:21;;;;;;;8.13;2.08;;;;;;;8.68;100.00;102418.13;5028296;28;20041;-84
2022/12/03 10:37:58;;;;;;;7.10;2.75;;;;;;;9.02;100.00;102446.75;5026283;28;20042;-83
2022/12/03 10:40:31;;;;;;;9.80;2.40;;;;;;;8.79;100.00;102422.47;5025825;28;20049;-84
2022/12/03 10:43:15;;;;;;;7.30;2.05;;;;;;;8.84;100.00;102426.78;5021165;28;20050;-83
2022/12/03 10:45:42;;;;;;;8.35;2.42;;;;;;;8.73;100.00;102398.09;5025351;28;20510;-83
2022/12/03 10:48:12;;;;;;;9.10;2.67;;;;;;;8.95;100.00;102437.19;5023642;28;20163;-82
2022/12/03 10:50:51;;;;;;;12.25;3.08;;;;;;;8.70;100.00;102441.63;5015957;28;20050;-83
2022/12/03 10:53:20;;;;;;;7.57;2.72;;;;;;;8.66;100.00;102438.16;5023415;28;20053;-83
2022/12/03 10:55:50;;;;;;;7.43;2.50;;;;;;;8.57;100.00;102399.03;5015480;28;20054;-83
2022/12/03 10:58:28;;;;;;;9.57;2.55;;;;;;;8.87;100.00;102398.06;5017751;28;20053;-83
2022/12/03 11:00:59;;;;;;;10.82;2.58;;;;;;;9.19;100.00;102425.78;5023056;28;20108;-83
2022/12/03 11:03:33;;;;;;;9.05;2.45;;;;;;;8.81;100.00;102391.97;5013447;28;20046;-83
2022/12/03 11:06:01;;;;;;;7.97;1.90;;;;;;;9.07;100.00;102402.31;5020002;28;20058;-83
2022/12/03 11:08:35;;;;;;;10.13;2.30;;;;;;;9.12;100.00;102413.63;5019927;28;20126;-83
2022/12/03 11:11:06;;;;;;;8.48;2.38;;;;;;;9.23;100.00;102397.88;5021580;28;20065;-83
2022/12/03 11:13:32;;;;;;;8.15;1.98;;;;;;;9.22;100.00;102397.00;5020269;28;20685;-83
2022/12/03 11:16:00;;;;;;;7.63;2.55;;;;;;;9.10;100.00;102355.25;5014311;28;20054;-83
2022/12/03 11:18:33;;;;;;;6.13;1.90;;;;;;;9.43;100.00;102403.00;5007254;28;20050;-83
2022/12/03 11:21:00;;;;;;;9.38;3.58;;;;;;;8.94;100.00;102359.69;5003823;28;20050;-82
2022/12/03 11:23:42;;;;;;;13.85;3.92;;;;;;;9.13;100.00;102392.69;5020641;28;20054;-83
2022/12/03 11:26:11;;;;;;;8.43;2.53;;;;;;;9.06;100.00;102401.44;5019427;28;20103;-83
2022/12/03 11:28:44;;;;;;;10.13;3.20;;;;;;;9.29;100.00;102398.69;5019953;28;20121;-83
2022/12/03 11:31:33;;;;;;;16.05;5.00;;;;;;;9.29;100.00;102395.22;5018389;28;20514;-83
2022/12/03 11:34:21;;;;;;;10.55;3.97;;;;;;;9.14;100.00;102388.34;5038978;28;20046;-83
2022/12/03 11:37:09;;;;;;;8.07;2.38;;;;;;;9.07;100.00;102384.91;5008534;28;20069;-83
2022/12/03 11:39:49;;;;;;;9.45;2.58;;;;;;;9.26;100.00;102388.28;5007879;28;20052;-83
2022/12/03 11:42:25;;;;;;;10.88;2.22;;;;;;;9.30;100.00;102378.69;5030206;28;20072;-83
2022/12/03 11:45:09;;;;;;;8.32;2.17;;;;;;;9.37;100.00;102379.53;5017965;28;20053;-83
2022/12/03 11:47:42;;;;;;;7.75;2.80;;;;;;;9.24;100.00;102374.38;5013479;28;20105;-83
2022/12/03 11:50:29;;;;;;;10.32;3.05;;;;;;;9.09;100.00;102377.06;5011112;28;20061;-83
2022/12/03 11:53:18;;;;;;;9.40;2.40;;;;;;;9.18;100.00;102378.75;5019299;28;20096;-83